sensor_id;sensor_type;location;lat;lon;timestamp;P1;durP1;ratioP1;P2;durP2;ratioP2
76749;SDS011;66447;35.844;14.468;2023-05-16T00:04:54;11.27;;;2.58;;
76749;SDS011;66447;35.844;14.468;2023-05-16T00:19:56;8.18;;;3.08;;
76749;SDS011;66447;35.844;14.468;2023-05-16T00:34:59;13.13;;;2.88;;
76749;SDS011;66447;35.844;14.468;2023-05-16T00:50:01;16.77;;;4.80;;
76749;SDS011;66447;35.844;14.468;2023-05-16T01:05:03;28.83;;;8.13;;
76749;SDS011;66447;35.844;14.468;2023-05-16T01:35:24;23.15;;;8.98;;
76749;SDS011;66447;35.844;14.468;2023-05-16T01:50:25;29.30;;;8.10;;
76749;SDS011;66447;35.844;14.468;2023-05-16T02:05:31;26.38;;;8.63;;
76749;SDS011;66447;35.844;14.468;2023-05-16T02:20:33;25.23;;;7.95;;
76749;SDS011;66447;35.844;14.468;2023-05-16T02:35:34;30.20;;;9.18;;
76749;SDS011;66447;35.844;14.468;2023-05-16T02:50:36;24.58;;;7.78;;
76749;SDS011;66447;35.844;14.468;2023-05-16T03:05:39;23.92;;;7.47;;
76749;SDS011;66447;35.844;14.468;2023-05-16T03:20:40;28.30;;;6.88;;
76749;SDS011;66447;35.844;14.468;2023-05-16T03:35:44;22.70;;;7.85;;
76749;SDS011;66447;35.844;14.468;2023-05-16T03:50:49;25.73;;;7.82;;
76749;SDS011;66447;35.844;14.468;2023-05-16T04:05:51;21.73;;;7.72;;
76749;SDS011;66447;35.844;14.468;2023-05-16T04:20:53;22.45;;;8.38;;
76749;SDS011;66447;35.844;14.468;2023-05-16T04:35:54;19.60;;;7.15;;
76749;SDS011;66447;35.844;14.468;2023-05-16T04:50:57;22.60;;;8.45;;
76749;SDS011;66447;35.844;14.468;2023-05-16T05:05:58;24.98;;;8.63;;
76749;SDS011;66447;35.844;14.468;2023-05-16T05:21:00;28.45;;;7.72;;
76749;SDS011;66447;35.844;14.468;2023-05-16T05:36:02;27.65;;;9.45;;
76749;SDS011;66447;35.844;14.468;2023-05-16T05:51:04;29.08;;;9.00;;
76749;SDS011;66447;35.844;14.468;2023-05-16T06:06:06;20.40;;;8.10;;
76749;SDS011;66447;35.844;14.468;2023-05-16T06:21:08;24.17;;;8.38;;
76749;SDS011;66447;35.844;14.468;2023-05-16T06:36:09;22.23;;;7.13;;
76749;SDS011;66447;35.844;14.468;2023-05-16T06:51:11;38.80;;;9.38;;
76749;SDS011;66447;35.844;14.468;2023-05-16T07:06:13;19.45;;;6.65;;
76749;SDS011;66447;35.844;14.468;2023-05-16T07:21:14;26.92;;;7.10;;
76749;SDS011;66447;35.844;14.468;2023-05-16T07:36:16;19.45;;;6.75;;
76749;SDS011;66447;35.844;14.468;2023-05-16T07:51:19;25.40;;;6.45;;
76749;SDS011;66447;35.844;14.468;2023-05-16T08:06:21;31.08;;;7.35;;
76749;SDS011;66447;35.844;14.468;2023-05-16T08:21:23;19.60;;;7.40;;
76749;SDS011;66447;35.844;14.468;2023-05-16T08:36:24;20.15;;;6.70;;
76749;SDS011;66447;35.844;14.468;2023-05-16T08:51:27;28.52;;;6.95;;
76749;SDS011;66447;35.844;14.468;2023-05-16T09:06:36;24.00;;;6.73;;
76749;SDS011;66447;35.844;14.468;2023-05-16T09:21:37;16.05;;;6.13;;
76749;SDS011;66447;35.844;14.468;2023-05-16T09:36:40;30.67;;;7.65;;
76749;SDS011;66447;35.844;14.468;2023-05-16T09:51:41;31.83;;;7.47;;
76749;SDS011;66447;35.844;14.468;2023-05-16T10:06:45;25.88;;;6.85;;
76749;SDS011;66447;35.844;14.468;2023-05-16T10:21:47;39.40;;;7.40;;
76749;SDS011;66447;35.844;14.468;2023-05-16T10:36:52;29.52;;;7.32;;
76749;SDS011;66447;35.844;14.468;2023-05-16T10:52:15;21.73;;;6.55;;
76749;SDS011;66447;35.844;14.468;2023-05-16T11:07:18;29.63;;;6.50;;
76749;SDS011;66447;35.844;14.468;2023-05-16T11:22:31;20.25;;;5.97;;
76749;SDS011;66447;35.844;14.468;2023-05-16T11:37:33;25.83;;;6.45;;
76749;SDS011;66447;35.844;14.468;2023-05-16T11:52:36;20.23;;;5.22;;
76749;SDS011;66447;35.844;14.468;2023-05-16T12:07:37;19.38;;;4.97;;
76749;SDS011;66447;35.844;14.468;2023-05-16T12:22:39;21.90;;;5.15;;
76749;SDS011;66447;35.844;14.468;2023-05-16T12:37:42;23.98;;;5.28;;
76749;SDS011;66447;35.844;14.468;2023-05-16T13:07:49;29.08;;;5.65;;
76749;SDS011;66447;35.844;14.468;2023-05-16T13:22:53;15.25;;;4.28;;
76749;SDS011;66447;35.844;14.468;2023-05-16T13:37:55;15.63;;;4.65;;
76749;SDS011;66447;35.844;14.468;2023-05-16T13:52:56;16.95;;;4.53;;
76749;SDS011;66447;35.844;14.468;2023-05-16T14:08:01;17.95;;;4.95;;
76749;SDS011;66447;35.844;14.468;2023-05-16T14:23:03;20.50;;;4.82;;
76749;SDS011;66447;35.844;14.468;2023-05-16T14:38:05;12.93;;;4.78;;
76749;SDS011;66447;35.844;14.468;2023-05-16T14:53:07;15.77;;;5.07;;
76749;SDS011;66447;35.844;14.468;2023-05-16T15:08:09;22.77;;;4.80;;
76749;SDS011;66447;35.844;14.468;2023-05-16T15:23:12;15.93;;;4.90;;
76749;SDS011;66447;35.844;14.468;2023-05-16T15:38:14;16.48;;;5.20;;
76749;SDS011;66447;35.844;14.468;2023-05-16T15:53:16;16.40;;;4.97;;
76749;SDS011;66447;35.844;14.468;2023-05-16T16:08:18;17.48;;;5.50;;
76749;SDS011;66447;35.844;14.468;2023-05-16T16:23:20;17.65;;;6.05;;
76749;SDS011;66447;35.844;14.468;2023-05-16T16:38:21;16.15;;;4.93;;
76749;SDS011;66447;35.844;14.468;2023-05-16T16:53:23;18.30;;;5.40;;
76749;SDS011;66447;35.844;14.468;2023-05-16T17:08:26;20.83;;;6.63;;
76749;SDS011;66447;35.844;14.468;2023-05-16T17:23:27;14.50;;;5.57;;
76749;SDS011;66447;35.844;14.468;2023-05-16T17:38:32;18.65;;;6.38;;
76749;SDS011;66447;35.844;14.468;2023-05-16T17:53:34;17.98;;;9.63;;
76749;SDS011;66447;35.844;14.468;2023-05-16T18:08:36;20.52;;;7.82;;
76749;SDS011;66447;35.844;14.468;2023-05-16T18:23:38;16.38;;;5.82;;
76749;SDS011;66447;35.844;14.468;2023-05-16T18:38:39;20.40;;;8.10;;
76749;SDS011;66447;35.844;14.468;2023-05-16T18:53:41;19.17;;;8.57;;
76749;SDS011;66447;35.844;14.468;2023-05-16T19:08:43;15.18;;;7.28;;
76749;SDS011;66447;35.844;14.468;2023-05-16T19:23:44;19.17;;;7.50;;
76749;SDS011;66447;35.844;14.468;2023-05-16T19:38:46;21.42;;;7.35;;
76749;SDS011;66447;35.844;14.468;2023-05-16T19:53:48;22.55;;;6.72;;
76749;SDS011;66447;35.844;14.468;2023-05-16T20:08:49;19.00;;;7.22;;
76749;SDS011;66447;35.844;14.468;2023-05-16T20:23:51;20.58;;;8.80;;
76749;SDS011;66447;35.844;14.468;2023-05-16T20:38:52;24.17;;;8.40;;
76749;SDS011;66447;35.844;14.468;2023-05-16T20:53:53;15.70;;;7.45;;
76749;SDS011;66447;35.844;14.468;2023-05-16T21:08:55;18.33;;;7.95;;
76749;SDS011;66447;35.844;14.468;2023-05-16T21:23:57;12.88;;;7.07;;
76749;SDS011;66447;35.844;14.468;2023-05-16T21:38:58;16.60;;;7.88;;
76749;SDS011;66447;35.844;14.468;2023-05-16T21:54:00;11.80;;;5.88;;
76749;SDS011;66447;35.844;14.468;2023-05-16T22:09:02;12.80;;;6.40;;
76749;SDS011;66447;35.844;14.468;2023-05-16T22:24:04;13.63;;;6.80;;
76749;SDS011;66447;35.844;14.468;2023-05-16T22:39:05;12.13;;;7.20;;
76749;SDS011;66447;35.844;14.468;2023-05-16T22:54:07;17.15;;;7.72;;
76749;SDS011;66447;35.844;14.468;2023-05-16T23:09:09;17.77;;;6.93;;
76749;SDS011;66447;35.844;14.468;2023-05-16T23:24:10;14.23;;;6.72;;
76749;SDS011;66447;35.844;14.468;2023-05-16T23:39:11;12.88;;;6.68;;
76749;SDS011;66447;35.844;14.468;2023-05-16T23:54:13;14.27;;;7.43;;
